sensor_id;sensor_type;location;lat;lon;timestamp;P1;durP1;ratioP1;P2;durP2;ratioP2
16516;SDS011;8371;52.272;9.746;2022-11-22T00:00:03;5.57;;;5.27;;
16516;SDS011;8371;52.272;9.746;2022-11-22T00:02:32;5.63;;;5.33;;
16516;SDS011;8371;52.272;9.746;2022-11-22T00:04:59;5.10;;;4.90;;
16516;SDS011;8371;52.272;9.746;2022-11-22T00:07:24;6.27;;;5.97;;
16516;SDS011;8371;52.272;9.746;2022-11-22T00:09:50;5.53;;;5.23;;
16516;SDS011;8371;52.272;9.746;2022-11-22T00:12:16;6.83;;;6.33;;
16516;SDS011;8371;52.272;9.746;2022-11-22T00:14:42;6.00;;;5.60;;
16516;SDS011;8371;52.272;9.746;2022-11-22T00:17:08;7.63;;;7.20;;
16516;SDS011;8371;52.272;9.746;2022-11-22T00:19:33;7.67;;;7.27;;
16516;SDS011;8371;52.272;9.746;2022-11-22T00:22:00;8.50;;;7.60;;
16516;SDS011;8371;52.272;9.746;2022-11-22T00:24:26;8.10;;;7.40;;
16516;SDS011;8371;52.272;9.746;2022-11-22T00:26:52;10.50;;;9.60;;
16516;SDS011;8371;52.272;9.746;2022-11-22T00:29:17;10.23;;;9.23;;
16516;SDS011;8371;52.272;9.746;2022-11-22T00:31:43;9.23;;;8.27;;
16516;SDS011;8371;52.272;9.746;2022-11-22T00:34:12;10.93;;;9.83;;
16516;SDS011;8371;52.272;9.746;2022-11-22T00:36:41;10.20;;;9.20;;
16516;SDS011;8371;52.272;9.746;2022-11-22T00:39:07;12.60;;;10.67;;
16516;SDS011;8371;52.272;9.746;2022-11-22T00:41:33;11.20;;;10.17;;
16516;SDS011;8371;52.272;9.746;2022-11-22T00:43:59;10.87;;;9.23;;
16516;SDS011;8371;52.272;9.746;2022-11-22T00:46:24;9.63;;;8.73;;
16516;SDS011;8371;52.272;9.746;2022-11-22T00:48:50;9.50;;;8.73;;
16516;SDS011;8371;52.272;9.746;2022-11-22T00:51:16;9.93;;;8.87;;
16516;SDS011;8371;52.272;9.746;2022-11-22T00:53:41;8.23;;;7.60;;
16516;SDS011;8371;52.272;9.746;2022-11-22T00:56:07;7.70;;;7.10;;
16516;SDS011;8371;52.272;9.746;2022-11-22T00:58:33;9.67;;;8.70;;
16516;SDS011;8371;52.272;9.746;2022-11-22T01:00:59;10.40;;;8.63;;
16516;SDS011;8371;52.272;9.746;2022-11-22T01:03:25;8.60;;;7.90;;
16516;SDS011;8371;52.272;9.746;2022-11-22T01:05:50;10.33;;;9.17;;
16516;SDS011;8371;52.272;9.746;2022-11-22T01:08:16;10.13;;;9.20;;
16516;SDS011;8371;52.272;9.746;2022-11-22T01:10:42;8.97;;;8.20;;
16516;SDS011;8371;52.272;9.746;2022-11-22T01:13:08;8.93;;;8.23;;
16516;SDS011;8371;52.272;9.746;2022-11-22T01:15:35;8.70;;;8.00;;
16516;SDS011;8371;52.272;9.746;2022-11-22T01:18:01;8.47;;;7.70;;
16516;SDS011;8371;52.272;9.746;2022-11-22T01:20:27;8.50;;;7.70;;
16516;SDS011;8371;52.272;9.746;2022-11-22T01:22:55;7.73;;;7.17;;
16516;SDS011;8371;52.272;9.746;2022-11-22T01:25:22;8.87;;;8.07;;
16516;SDS011;8371;52.272;9.746;2022-11-22T01:27:48;6.87;;;6.30;;
16516;SDS011;8371;52.272;9.746;2022-11-22T01:30:15;8.30;;;7.50;;
16516;SDS011;8371;52.272;9.746;2022-11-22T01:32:41;8.30;;;7.60;;
16516;SDS011;8371;52.272;9.746;2022-11-22T01:35:07;8.83;;;8.10;;
16516;SDS011;8371;52.272;9.746;2022-11-22T01:37:33;9.67;;;8.60;;
16516;SDS011;8371;52.272;9.746;2022-11-22T01:39:59;8.23;;;7.60;;
16516;SDS011;8371;52.272;9.746;2022-11-22T01:42:38;10.17;;;9.03;;
16516;SDS011;8371;52.272;9.746;2022-11-22T01:48:12;8.60;;;7.87;;
16516;SDS011;8371;52.272;9.746;2022-11-22T01:50:34;8.93;;;8.13;;
16516;SDS011;8371;52.272;9.746;2022-11-22T01:53:03;9.03;;;8.23;;
16516;SDS011;8371;52.272;9.746;2022-11-22T01:55:37;11.00;;;9.97;;
16516;SDS011;8371;52.272;9.746;2022-11-22T01:58:05;11.13;;;9.97;;
16516;SDS011;8371;52.272;9.746;2022-11-22T02:00:31;10.17;;;9.03;;
16516;SDS011;8371;52.272;9.746;2022-11-22T02:02:58;10.57;;;9.67;;
16516;SDS011;8371;52.272;9.746;2022-11-22T02:05:27;10.93;;;9.93;;
16516;SDS011;8371;52.272;9.746;2022-11-22T02:07:57;10.73;;;9.57;;
16516;SDS011;8371;52.272;9.746;2022-11-22T02:10:25;10.03;;;9.20;;
16516;SDS011;8371;52.272;9.746;2022-11-22T02:12:53;11.20;;;10.03;;
16516;SDS011;8371;52.272;9.746;2022-11-22T02:15:22;11.23;;;9.53;;
16516;SDS011;8371;52.272;9.746;2022-11-22T02:17:48;13.10;;;10.93;;
16516;SDS011;8371;52.272;9.746;2022-11-22T02:20:13;13.20;;;11.07;;
16516;SDS011;8371;52.272;9.746;2022-11-22T02:22:43;10.63;;;9.63;;
16516;SDS011;8371;52.272;9.746;2022-11-22T02:25:15;11.10;;;9.50;;
16516;SDS011;8371;52.272;9.746;2022-11-22T02:27:49;13.13;;;11.23;;
16516;SDS011;8371;52.272;9.746;2022-11-22T02:30:15;16.67;;;12.37;;
16516;SDS011;8371;52.272;9.746;2022-11-22T02:32:41;15.83;;;12.50;;
16516;SDS011;8371;52.272;9.746;2022-11-22T02:35:15;20.67;;;13.23;;
16516;SDS011;8371;52.272;9.746;2022-11-22T02:37:43;14.20;;;11.33;;
16516;SDS011;8371;52.272;9.746;2022-11-22T02:40:09;15.97;;;12.47;;
16516;SDS011;8371;52.272;9.746;2022-11-22T02:42:38;18.70;;;11.97;;
16516;SDS011;8371;52.272;9.746;2022-11-22T02:45:06;20.10;;;14.87;;
16516;SDS011;8371;52.272;9.746;2022-11-22T02:47:32;19.47;;;13.43;;
16516;SDS011;8371;52.272;9.746;2022-11-22T02:49:58;16.73;;;13.53;;
16516;SDS011;8371;52.272;9.746;2022-11-22T02:52:24;18.00;;;13.37;;
16516;SDS011;8371;52.272;9.746;2022-11-22T02:54:49;15.97;;;12.37;;
16516;SDS011;8371;52.272;9.746;2022-11-22T02:57:15;20.53;;;14.63;;
16516;SDS011;8371;52.272;9.746;2022-11-22T02:59:41;15.77;;;13.50;;
16516;SDS011;8371;52.272;9.746;2022-11-22T03:02:06;15.80;;;13.07;;
16516;SDS011;8371;52.272;9.746;2022-11-22T03:04:32;16.67;;;13.33;;
16516;SDS011;8371;52.272;9.746;2022-11-22T03:06:58;16.10;;;12.33;;
16516;SDS011;8371;52.272;9.746;2022-11-22T03:09:26;15.30;;;12.13;;
16516;SDS011;8371;52.272;9.746;2022-11-22T03:11:52;15.93;;;12.03;;
16516;SDS011;8371;52.272;9.746;2022-11-22T03:14:18;15.40;;;12.40;;
16516;SDS011;8371;52.272;9.746;2022-11-22T03:16:45;16.00;;;12.90;;
16516;SDS011;8371;52.272;9.746;2022-11-22T03:19:12;12.73;;;11.50;;
16516;SDS011;8371;52.272;9.746;2022-11-22T03:21:39;15.57;;;12.13;;
16516;SDS011;8371;52.272;9.746;2022-11-22T03:24:06;12.83;;;10.43;;
16516;SDS011;8371;52.272;9.746;2022-11-22T03:26:33;12.50;;;10.30;;
16516;SDS011;8371;52.272;9.746;2022-11-22T03:29:00;12.60;;;10.90;;
16516;SDS011;8371;52.272;9.746;2022-11-22T03:31:26;10.97;;;9.83;;
16516;SDS011;8371;52.272;9.746;2022-11-22T03:33:52;13.20;;;11.07;;
16516;SDS011;8371;52.272;9.746;2022-11-22T03:36:18;10.60;;;9.70;;
16516;SDS011;8371;52.272;9.746;2022-11-22T03:38:44;11.40;;;10.20;;
16516;SDS011;8371;52.272;9.746;2022-11-22T03:41:10;10.70;;;9.73;;
16516;SDS011;8371;52.272;9.746;2022-11-22T03:43:36;13.57;;;11.10;;
16516;SDS011;8371;52.272;9.746;2022-11-22T03:46:02;14.57;;;11.27;;
16516;SDS011;8371;52.272;9.746;2022-11-22T03:48:28;12.03;;;10.83;;
16516;SDS011;8371;52.272;9.746;2022-11-22T03:51:01;12.17;;;10.70;;
16516;SDS011;8371;52.272;9.746;2022-11-22T03:53:31;11.63;;;10.43;;
16516;SDS011;8371;52.272;9.746;2022-11-22T03:55:57;10.63;;;9.67;;
16516;SDS011;8371;52.272;9.746;2022-11-22T03:58:23;11.27;;;10.27;;
16516;SDS011;8371;52.272;9.746;2022-11-22T04:00:49;10.40;;;9.50;;
16516;SDS011;8371;52.272;9.746;2022-11-22T04:03:15;14.47;;;10.73;;
16516;SDS011;8371;52.272;9.746;2022-11-22T04:05:40;11.03;;;10.03;;
16516;SDS011;8371;52.272;9.746;2022-11-22T04:08:06;10.93;;;10.03;;
16516;SDS011;8371;52.272;9.746;2022-11-22T04:10:32;11.60;;;10.23;;
16516;SDS011;8371;52.272;9.746;2022-11-22T04:12:58;11.40;;;10.03;;
16516;SDS011;8371;52.272;9.746;2022-11-22T04:15:24;10.77;;;9.67;;
16516;SDS011;8371;52.272;9.746;2022-11-22T04:17:51;10.50;;;9.50;;
16516;SDS011;8371;52.272;9.746;2022-11-22T04:20:18;9.97;;;9.13;;
16516;SDS011;8371;52.272;9.746;2022-11-22T04:25:40;11.13;;;9.63;;
16516;SDS011;8371;52.272;9.746;2022-11-22T04:28:08;12.23;;;10.43;;
16516;SDS011;8371;52.272;9.746;2022-11-22T04:30:35;9.47;;;8.77;;
16516;SDS011;8371;52.272;9.746;2022-11-22T04:33:20;8.90;;;8.17;;
16516;SDS011;8371;52.272;9.746;2022-11-22T04:35:46;9.53;;;8.73;;
16516;SDS011;8371;52.272;9.746;2022-11-22T04:38:13;9.20;;;8.50;;
16516;SDS011;8371;52.272;9.746;2022-11-22T04:40:39;8.97;;;8.27;;
16516;SDS011;8371;52.272;9.746;2022-11-22T04:43:05;9.10;;;8.33;;
16516;SDS011;8371;52.272;9.746;2022-11-22T04:45:50;9.07;;;8.27;;
16516;SDS011;8371;52.272;9.746;2022-11-22T04:48:16;8.60;;;8.00;;
16516;SDS011;8371;52.272;9.746;2022-11-22T04:50:43;9.30;;;8.50;;
16516;SDS011;8371;52.272;9.746;2022-11-22T04:53:27;9.27;;;8.47;;
16516;SDS011;8371;52.272;9.746;2022-11-22T04:55:54;9.13;;;8.43;;
16516;SDS011;8371;52.272;9.746;2022-11-22T04:58:20;7.80;;;7.30;;
16516;SDS011;8371;52.272;9.746;2022-11-22T05:00:47;9.63;;;8.63;;
16516;SDS011;8371;52.272;9.746;2022-11-22T05:03:14;8.80;;;8.00;;
16516;SDS011;8371;52.272;9.746;2022-11-22T05:05:40;8.93;;;8.13;;
16516;SDS011;8371;52.272;9.746;2022-11-22T05:08:07;9.30;;;8.57;;
16516;SDS011;8371;52.272;9.746;2022-11-22T05:10:34;9.60;;;8.90;;
16516;SDS011;8371;52.272;9.746;2022-11-22T05:13:20;8.73;;;7.97;;
16516;SDS011;8371;52.272;9.746;2022-11-22T05:15:46;8.27;;;7.67;;
16516;SDS011;8371;52.272;9.746;2022-11-22T05:18:12;8.63;;;7.93;;
16516;SDS011;8371;52.272;9.746;2022-11-22T05:20:38;7.83;;;7.30;;
16516;SDS011;8371;52.272;9.746;2022-11-22T05:23:04;7.47;;;6.87;;
16516;SDS011;8371;52.272;9.746;2022-11-22T05:25:48;9.40;;;8.60;;
16516;SDS011;8371;52.272;9.746;2022-11-22T05:28:14;8.40;;;7.80;;
16516;SDS011;8371;52.272;9.746;2022-11-22T05:30:40;8.00;;;7.40;;
16516;SDS011;8371;52.272;9.746;2022-11-22T05:33:06;9.20;;;8.40;;
16516;SDS011;8371;52.272;9.746;2022-11-22T05:35:32;8.33;;;7.53;;
16516;SDS011;8371;52.272;9.746;2022-11-22T05:37:58;8.10;;;7.50;;
16516;SDS011;8371;52.272;9.746;2022-11-22T05:40:24;8.53;;;7.87;;
16516;SDS011;8371;52.272;9.746;2022-11-22T05:42:51;7.07;;;6.60;;
16516;SDS011;8371;52.272;9.746;2022-11-22T05:45:17;8.37;;;7.37;;
16516;SDS011;8371;52.272;9.746;2022-11-22T05:47:43;7.33;;;6.90;;
16516;SDS011;8371;52.272;9.746;2022-11-22T05:50:09;7.93;;;7.40;;
16516;SDS011;8371;52.272;9.746;2022-11-22T05:52:35;7.80;;;7.30;;
16516;SDS011;8371;52.272;9.746;2022-11-22T05:55:01;7.80;;;7.10;;
16516;SDS011;8371;52.272;9.746;2022-11-22T05:57:26;7.60;;;7.07;;
16516;SDS011;8371;52.272;9.746;2022-11-22T05:59:53;8.77;;;7.83;;
16516;SDS011;8371;52.272;9.746;2022-11-22T06:02:19;7.67;;;7.07;;
16516;SDS011;8371;52.272;9.746;2022-11-22T06:04:45;6.60;;;6.23;;
16516;SDS011;8371;52.272;9.746;2022-11-22T06:07:11;6.97;;;6.50;;
16516;SDS011;8371;52.272;9.746;2022-11-22T06:09:36;6.93;;;6.23;;
16516;SDS011;8371;52.272;9.746;2022-11-22T06:12:02;7.30;;;6.80;;
16516;SDS011;8371;52.272;9.746;2022-11-22T06:14:28;7.30;;;6.80;;
16516;SDS011;8371;52.272;9.746;2022-11-22T06:16:54;6.77;;;6.37;;
16516;SDS011;8371;52.272;9.746;2022-11-22T06:19:19;7.27;;;6.87;;
16516;SDS011;8371;52.272;9.746;2022-11-22T06:21:45;7.30;;;6.80;;
16516;SDS011;8371;52.272;9.746;2022-11-22T06:24:11;7.20;;;6.80;;
16516;SDS011;8371;52.272;9.746;2022-11-22T06:26:37;6.07;;;5.77;;
16516;SDS011;8371;52.272;9.746;2022-11-22T06:29:02;6.67;;;6.27;;
16516;SDS011;8371;52.272;9.746;2022-11-22T06:31:28;7.53;;;7.07;;
16516;SDS011;8371;52.272;9.746;2022-11-22T06:33:55;7.17;;;6.67;;
16516;SDS011;8371;52.272;9.746;2022-11-22T06:36:24;6.70;;;6.40;;
16516;SDS011;8371;52.272;9.746;2022-11-22T06:38:54;7.27;;;6.77;;
16516;SDS011;8371;52.272;9.746;2022-11-22T06:41:21;7.00;;;6.60;;
16516;SDS011;8371;52.272;9.746;2022-11-22T06:43:49;7.77;;;7.27;;
16516;SDS011;8371;52.272;9.746;2022-11-22T06:46:17;6.87;;;6.47;;
16516;SDS011;8371;52.272;9.746;2022-11-22T06:48:44;6.83;;;6.33;;
16516;SDS011;8371;52.272;9.746;2022-11-22T06:51:18;7.17;;;6.67;;
16516;SDS011;8371;52.272;9.746;2022-11-22T06:53:42;6.27;;;5.93;;
16516;SDS011;8371;52.272;9.746;2022-11-22T06:56:09;6.60;;;6.30;;
16516;SDS011;8371;52.272;9.746;2022-11-22T06:58:39;6.50;;;6.10;;
16516;SDS011;8371;52.272;9.746;2022-11-22T07:01:07;6.37;;;5.97;;
16516;SDS011;8371;52.272;9.746;2022-11-22T07:03:34;6.30;;;5.90;;
16516;SDS011;8371;52.272;9.746;2022-11-22T07:06:01;6.50;;;6.10;;
16516;SDS011;8371;52.272;9.746;2022-11-22T07:08:28;6.53;;;6.03;;
16516;SDS011;8371;52.272;9.746;2022-11-22T07:10:54;5.60;;;5.20;;
16516;SDS011;8371;52.272;9.746;2022-11-22T07:13:20;5.87;;;5.57;;
16516;SDS011;8371;52.272;9.746;2022-11-22T07:15:55;5.23;;;4.90;;
16516;SDS011;8371;52.272;9.746;2022-11-22T07:18:20;5.60;;;5.30;;
16516;SDS011;8371;52.272;9.746;2022-11-22T07:20:46;4.50;;;4.30;;
16516;SDS011;8371;52.272;9.746;2022-11-22T07:23:11;4.67;;;4.47;;
16516;SDS011;8371;52.272;9.746;2022-11-22T07:25:38;4.17;;;3.90;;
16516;SDS011;8371;52.272;9.746;2022-11-22T07:28:11;4.60;;;4.20;;
16516;SDS011;8371;52.272;9.746;2022-11-22T07:30:37;4.93;;;4.53;;
16516;SDS011;8371;52.272;9.746;2022-11-22T07:33:03;4.40;;;4.20;;
16516;SDS011;8371;52.272;9.746;2022-11-22T07:35:29;4.80;;;4.60;;
16516;SDS011;8371;52.272;9.746;2022-11-22T07:37:55;5.83;;;5.53;;
16516;SDS011;8371;52.272;9.746;2022-11-22T07:40:20;5.97;;;5.63;;
16516;SDS011;8371;52.272;9.746;2022-11-22T07:42:46;5.87;;;5.50;;
16516;SDS011;8371;52.272;9.746;2022-11-22T07:45:12;6.00;;;5.70;;
16516;SDS011;8371;52.272;9.746;2022-11-22T07:47:38;5.33;;;5.13;;
16516;SDS011;8371;52.272;9.746;2022-11-22T07:50:04;5.33;;;5.03;;
16516;SDS011;8371;52.272;9.746;2022-11-22T07:52:30;5.93;;;5.43;;
16516;SDS011;8371;52.272;9.746;2022-11-22T07:54:56;5.73;;;5.43;;
16516;SDS011;8371;52.272;9.746;2022-11-22T07:57:22;5.10;;;4.80;;
16516;SDS011;8371;52.272;9.746;2022-11-22T07:59:47;4.93;;;4.73;;
16516;SDS011;8371;52.272;9.746;2022-11-22T08:02:13;4.43;;;4.23;;
16516;SDS011;8371;52.272;9.746;2022-11-22T08:04:39;4.80;;;4.50;;
16516;SDS011;8371;52.272;9.746;2022-11-22T08:07:05;4.27;;;3.97;;
16516;SDS011;8371;52.272;9.746;2022-11-22T08:09:31;3.97;;;3.73;;
16516;SDS011;8371;52.272;9.746;2022-11-22T08:11:56;3.73;;;3.57;;
16516;SDS011;8371;52.272;9.746;2022-11-22T08:14:22;3.90;;;3.70;;
16516;SDS011;8371;52.272;9.746;2022-11-22T08:16:48;4.13;;;3.93;;
16516;SDS011;8371;52.272;9.746;2022-11-22T08:19:15;3.50;;;3.30;;
16516;SDS011;8371;52.272;9.746;2022-11-22T08:21:43;3.70;;;3.60;;
16516;SDS011;8371;52.272;9.746;2022-11-22T08:24:09;4.03;;;3.80;;
16516;SDS011;8371;52.272;9.746;2022-11-22T08:26:35;3.83;;;3.70;;
16516;SDS011;8371;52.272;9.746;2022-11-22T08:29:04;3.47;;;3.37;;
16516;SDS011;8371;52.272;9.746;2022-11-22T08:31:32;4.10;;;3.90;;
16516;SDS011;8371;52.272;9.746;2022-11-22T08:33:58;3.60;;;3.50;;
16516;SDS011;8371;52.272;9.746;2022-11-22T08:36:24;4.10;;;3.90;;
16516;SDS011;8371;52.272;9.746;2022-11-22T08:38:51;3.90;;;3.70;;
16516;SDS011;8371;52.272;9.746;2022-11-22T08:41:17;3.70;;;3.53;;
16516;SDS011;8371;52.272;9.746;2022-11-22T08:43:42;4.07;;;3.87;;
16516;SDS011;8371;52.272;9.746;2022-11-22T08:46:09;4.10;;;3.90;;
16516;SDS011;8371;52.272;9.746;2022-11-22T08:48:35;4.00;;;3.80;;
16516;SDS011;8371;52.272;9.746;2022-11-22T08:51:03;3.30;;;3.20;;
16516;SDS011;8371;52.272;9.746;2022-11-22T08:53:31;3.97;;;3.77;;
16516;SDS011;8371;52.272;9.746;2022-11-22T08:55:59;3.73;;;3.63;;
16516;SDS011;8371;52.272;9.746;2022-11-22T08:58:26;3.33;;;3.23;;
16516;SDS011;8371;52.272;9.746;2022-11-22T09:00:54;3.97;;;3.67;;
16516;SDS011;8371;52.272;9.746;2022-11-22T09:03:20;4.13;;;4.00;;
16516;SDS011;8371;52.272;9.746;2022-11-22T09:05:45;3.63;;;3.53;;
16516;SDS011;8371;52.272;9.746;2022-11-22T09:08:11;3.50;;;3.40;;
16516;SDS011;8371;52.272;9.746;2022-11-22T09:10:37;3.60;;;3.50;;
16516;SDS011;8371;52.272;9.746;2022-11-22T09:13:02;3.80;;;3.60;;
16516;SDS011;8371;52.272;9.746;2022-11-22T09:15:28;3.37;;;3.27;;
16516;SDS011;8371;52.272;9.746;2022-11-22T09:18:00;3.83;;;3.63;;
16516;SDS011;8371;52.272;9.746;2022-11-22T09:20:27;3.87;;;3.70;;
16516;SDS011;8371;52.272;9.746;2022-11-22T09:22:52;3.83;;;3.67;;
16516;SDS011;8371;52.272;9.746;2022-11-22T09:25:18;3.77;;;3.57;;
16516;SDS011;8371;52.272;9.746;2022-11-22T09:27:44;3.43;;;3.33;;
16516;SDS011;8371;52.272;9.746;2022-11-22T09:30:10;2.93;;;2.83;;
16516;SDS011;8371;52.272;9.746;2022-11-22T09:32:36;3.70;;;3.40;;
16516;SDS011;8371;52.272;9.746;2022-11-22T09:35:01;3.60;;;3.50;;
16516;SDS011;8371;52.272;9.746;2022-11-22T09:37:27;3.87;;;3.67;;
16516;SDS011;8371;52.272;9.746;2022-11-22T09:39:53;3.37;;;3.27;;
16516;SDS011;8371;52.272;9.746;2022-11-22T09:42:42;3.90;;;3.80;;
16516;SDS011;8371;52.272;9.746;2022-11-22T09:45:33;3.77;;;3.57;;
16516;SDS011;8371;52.272;9.746;2022-11-22T09:48:04;3.67;;;3.50;;
16516;SDS011;8371;52.272;9.746;2022-11-22T09:53:44;3.30;;;3.10;;
16516;SDS011;8371;52.272;9.746;2022-11-22T09:56:16;3.03;;;2.93;;
16516;SDS011;8371;52.272;9.746;2022-11-22T09:58:49;3.40;;;3.30;;
16516;SDS011;8371;52.272;9.746;2022-11-22T10:01:25;3.07;;;2.97;;
16516;SDS011;8371;52.272;9.746;2022-11-22T10:04:07;3.53;;;3.43;;
16516;SDS011;8371;52.272;9.746;2022-11-22T10:06:36;3.50;;;3.30;;
16516;SDS011;8371;52.272;9.746;2022-11-22T10:12:08;2.87;;;2.63;;
16516;SDS011;8371;52.272;9.746;2022-11-22T10:20:04;3.20;;;3.10;;
16516;SDS011;8371;52.272;9.746;2022-11-22T10:22:32;2.87;;;2.77;;
16516;SDS011;8371;52.272;9.746;2022-11-22T10:25:00;3.20;;;3.00;;
16516;SDS011;8371;52.272;9.746;2022-11-22T10:27:29;2.90;;;2.80;;
16516;SDS011;8371;52.272;9.746;2022-11-22T10:30:01;3.20;;;3.10;;
16516;SDS011;8371;52.272;9.746;2022-11-22T10:35:21;2.43;;;2.33;;
16516;SDS011;8371;52.272;9.746;2022-11-22T10:43:16;2.70;;;2.60;;
16516;SDS011;8371;52.272;9.746;2022-11-22T10:46:21;2.60;;;2.50;;
16516;SDS011;8371;52.272;9.746;2022-11-22T10:48:41;2.33;;;2.23;;
16516;SDS011;8371;52.272;9.746;2022-11-22T10:57:06;2.20;;;2.10;;
16516;SDS011;8371;52.272;9.746;2022-11-22T11:05:10;2.33;;;2.23;;
16516;SDS011;8371;52.272;9.746;2022-11-22T11:07:40;1.80;;;1.80;;
16516;SDS011;8371;52.272;9.746;2022-11-22T11:10:18;1.90;;;1.80;;
16516;SDS011;8371;52.272;9.746;2022-11-22T11:12:44;2.30;;;2.20;;
16516;SDS011;8371;52.272;9.746;2022-11-22T11:15:16;2.30;;;2.20;;
16516;SDS011;8371;52.272;9.746;2022-11-22T11:17:48;2.80;;;2.13;;
16516;SDS011;8371;52.272;9.746;2022-11-22T11:20:26;2.30;;;2.13;;
16516;SDS011;8371;52.272;9.746;2022-11-22T11:22:55;1.73;;;1.70;;
16516;SDS011;8371;52.272;9.746;2022-11-22T11:25:35;2.17;;;2.00;;
16516;SDS011;8371;52.272;9.746;2022-11-22T11:30:43;1.70;;;1.60;;
16516;SDS011;8371;52.272;9.746;2022-11-22T11:36:01;3.97;;;1.60;;
16516;SDS011;8371;52.272;9.746;2022-11-22T11:38:33;1.70;;;1.70;;
16516;SDS011;8371;52.272;9.746;2022-11-22T11:43:49;1.80;;;1.70;;
16516;SDS011;8371;52.272;9.746;2022-11-22T11:46:26;1.93;;;1.93;;
16516;SDS011;8371;52.272;9.746;2022-11-22T11:48:54;2.10;;;2.00;;
16516;SDS011;8371;52.272;9.746;2022-11-22T11:54:01;1.60;;;1.60;;
16516;SDS011;8371;52.272;9.746;2022-11-22T11:56:34;1.80;;;1.70;;
16516;SDS011;8371;52.272;9.746;2022-11-22T11:59:12;1.90;;;1.73;;
16516;SDS011;8371;52.272;9.746;2022-11-22T12:01:50;1.63;;;1.63;;
16516;SDS011;8371;52.272;9.746;2022-11-22T12:04:28;1.67;;;1.57;;
16516;SDS011;8371;52.272;9.746;2022-11-22T12:07:19;2.00;;;1.90;;
16516;SDS011;8371;52.272;9.746;2022-11-22T12:09:44;1.60;;;1.60;;
16516;SDS011;8371;52.272;9.746;2022-11-22T12:12:14;1.70;;;1.60;;
16516;SDS011;8371;52.272;9.746;2022-11-22T12:14:45;1.70;;;1.60;;
16516;SDS011;8371;52.272;9.746;2022-11-22T12:17:17;2.03;;;1.93;;
16516;SDS011;8371;52.272;9.746;2022-11-22T12:20:00;1.83;;;1.50;;
16516;SDS011;8371;52.272;9.746;2022-11-22T12:22:44;2.30;;;1.80;;
16516;SDS011;8371;52.272;9.746;2022-11-22T12:27:50;1.53;;;1.23;;
16516;SDS011;8371;52.272;9.746;2022-11-22T12:30:15;2.00;;;1.60;;
16516;SDS011;8371;52.272;9.746;2022-11-22T12:32:44;1.97;;;1.60;;
16516;SDS011;8371;52.272;9.746;2022-11-22T12:35:13;1.60;;;1.50;;
16516;SDS011;8371;52.272;9.746;2022-11-22T12:37:48;1.80;;;1.70;;
16516;SDS011;8371;52.272;9.746;2022-11-22T12:40:21;1.90;;;1.80;;
16516;SDS011;8371;52.272;9.746;2022-11-22T12:42:52;1.93;;;1.27;;
16516;SDS011;8371;52.272;9.746;2022-11-22T12:47:52;1.53;;;1.53;;
16516;SDS011;8371;52.272;9.746;2022-11-22T12:50:25;1.73;;;1.63;;
16516;SDS011;8371;52.272;9.746;2022-11-22T12:53:02;1.80;;;1.50;;
16516;SDS011;8371;52.272;9.746;2022-11-22T12:55:46;1.90;;;1.67;;
16516;SDS011;8371;52.272;9.746;2022-11-22T12:58:32;1.47;;;1.40;;
16516;SDS011;8371;52.272;9.746;2022-11-22T13:06:46;1.67;;;1.40;;
16516;SDS011;8371;52.272;9.746;2022-11-22T13:09:23;1.80;;;1.70;;
16516;SDS011;8371;52.272;9.746;2022-11-22T13:12:02;1.50;;;1.50;;
16516;SDS011;8371;52.272;9.746;2022-11-22T13:14:31;2.77;;;1.73;;
16516;SDS011;8371;52.272;9.746;2022-11-22T13:17:04;1.90;;;1.63;;
16516;SDS011;8371;52.272;9.746;2022-11-22T13:19:39;1.50;;;1.40;;
16516;SDS011;8371;52.272;9.746;2022-11-22T13:22:13;1.70;;;1.60;;
16516;SDS011;8371;52.272;9.746;2022-11-22T13:24:45;3.27;;;2.13;;
16516;SDS011;8371;52.272;9.746;2022-11-22T13:27:23;1.50;;;1.50;;
16516;SDS011;8371;52.272;9.746;2022-11-22T13:29:56;1.20;;;1.20;;
16516;SDS011;8371;52.272;9.746;2022-11-22T13:32:24;1.30;;;1.30;;
16516;SDS011;8371;52.272;9.746;2022-11-22T13:35:05;1.80;;;1.70;;
16516;SDS011;8371;52.272;9.746;2022-11-22T13:37:44;1.40;;;1.40;;
16516;SDS011;8371;52.272;9.746;2022-11-22T13:45:45;1.50;;;1.40;;
16516;SDS011;8371;52.272;9.746;2022-11-22T13:51:11;1.40;;;1.23;;
16516;SDS011;8371;52.272;9.746;2022-11-22T13:53:43;1.57;;;1.47;;
16516;SDS011;8371;52.272;9.746;2022-11-22T14:18:11;1.07;;;1.07;;
16516;SDS011;8371;52.272;9.746;2022-11-22T14:31:36;2.70;;;1.73;;
16516;SDS011;8371;52.272;9.746;2022-11-22T14:34:17;3.40;;;1.30;;
16516;SDS011;8371;52.272;9.746;2022-11-22T14:47:38;1.73;;;1.50;;
16516;SDS011;8371;52.272;9.746;2022-11-22T14:50:14;1.40;;;1.30;;
16516;SDS011;8371;52.272;9.746;2022-11-22T14:52:42;2.77;;;2.13;;
16516;SDS011;8371;52.272;9.746;2022-11-22T14:55:13;1.40;;;1.30;;
16516;SDS011;8371;52.272;9.746;2022-11-22T14:57:42;1.43;;;1.33;;
16516;SDS011;8371;52.272;9.746;2022-11-22T15:02:53;1.23;;;1.23;;
16516;SDS011;8371;52.272;9.746;2022-11-22T15:05:20;1.60;;;1.50;;
16516;SDS011;8371;52.272;9.746;2022-11-22T15:13:14;1.60;;;1.10;;
16516;SDS011;8371;52.272;9.746;2022-11-22T15:16:00;2.40;;;1.83;;
16516;SDS011;8371;52.272;9.746;2022-11-22T15:18:31;1.40;;;1.30;;
16516;SDS011;8371;52.272;9.746;2022-11-22T15:23:51;1.50;;;1.40;;
16516;SDS011;8371;52.272;9.746;2022-11-22T15:26:18;1.60;;;1.20;;
16516;SDS011;8371;52.272;9.746;2022-11-22T15:28:47;1.77;;;1.60;;
16516;SDS011;8371;52.272;9.746;2022-11-22T15:31:15;1.50;;;1.50;;
16516;SDS011;8371;52.272;9.746;2022-11-22T15:33:44;1.40;;;1.40;;
16516;SDS011;8371;52.272;9.746;2022-11-22T15:38:50;1.10;;;1.10;;
16516;SDS011;8371;52.272;9.746;2022-11-22T15:41:17;1.37;;;1.33;;
16516;SDS011;8371;52.272;9.746;2022-11-22T15:43:48;1.50;;;1.40;;
16516;SDS011;8371;52.272;9.746;2022-11-22T15:46:17;1.40;;;1.30;;
16516;SDS011;8371;52.272;9.746;2022-11-22T15:48:48;1.60;;;1.50;;
16516;SDS011;8371;52.272;9.746;2022-11-22T15:56:45;3.97;;;1.90;;
16516;SDS011;8371;52.272;9.746;2022-11-22T15:59:24;2.00;;;1.80;;
16516;SDS011;8371;52.272;9.746;2022-11-22T16:01:53;1.43;;;1.33;;
16516;SDS011;8371;52.272;9.746;2022-11-22T16:04:22;2.10;;;2.00;;
16516;SDS011;8371;52.272;9.746;2022-11-22T16:06:53;2.83;;;1.77;;
16516;SDS011;8371;52.272;9.746;2022-11-22T16:09:27;1.90;;;1.80;;
16516;SDS011;8371;52.272;9.746;2022-11-22T16:11:55;2.43;;;1.17;;
16516;SDS011;8371;52.272;9.746;2022-11-22T16:25:45;1.10;;;1.07;;
16516;SDS011;8371;52.272;9.746;2022-11-22T16:31:02;1.23;;;1.23;;
16516;SDS011;8371;52.272;9.746;2022-11-22T16:33:30;2.67;;;1.17;;
16516;SDS011;8371;52.272;9.746;2022-11-22T16:35:56;1.80;;;1.70;;
16516;SDS011;8371;52.272;9.746;2022-11-22T16:38:25;1.77;;;1.50;;
16516;SDS011;8371;52.272;9.746;2022-11-22T16:40:51;1.70;;;1.60;;
16516;SDS011;8371;52.272;9.746;2022-11-22T16:43:23;1.60;;;1.50;;
16516;SDS011;8371;52.272;9.746;2022-11-22T16:45:50;1.70;;;1.60;;
16516;SDS011;8371;52.272;9.746;2022-11-22T16:48:21;2.33;;;2.20;;
16516;SDS011;8371;52.272;9.746;2022-11-22T16:50:47;1.63;;;1.53;;
16516;SDS011;8371;52.272;9.746;2022-11-22T16:53:18;1.33;;;1.33;;
16516;SDS011;8371;52.272;9.746;2022-11-22T16:55:43;1.90;;;1.77;;
16516;SDS011;8371;52.272;9.746;2022-11-22T16:58:14;1.50;;;1.40;;
16516;SDS011;8371;52.272;9.746;2022-11-22T17:00:38;1.43;;;1.40;;
16516;SDS011;8371;52.272;9.746;2022-11-22T17:03:05;1.63;;;1.20;;
16516;SDS011;8371;52.272;9.746;2022-11-22T17:05:32;1.33;;;1.30;;
16516;SDS011;8371;52.272;9.746;2022-11-22T17:07:58;1.43;;;1.20;;
16516;SDS011;8371;52.272;9.746;2022-11-22T17:10:23;1.53;;;1.43;;
16516;SDS011;8371;52.272;9.746;2022-11-22T17:12:49;1.63;;;1.50;;
16516;SDS011;8371;52.272;9.746;2022-11-22T17:15:15;1.20;;;1.20;;
16516;SDS011;8371;52.272;9.746;2022-11-22T17:17:43;1.50;;;1.40;;
16516;SDS011;8371;52.272;9.746;2022-11-22T17:20:09;1.60;;;1.50;;
16516;SDS011;8371;52.272;9.746;2022-11-22T17:22:35;1.70;;;1.60;;
16516;SDS011;8371;52.272;9.746;2022-11-22T17:25:04;1.73;;;1.73;;
16516;SDS011;8371;52.272;9.746;2022-11-22T17:27:32;2.40;;;1.60;;
16516;SDS011;8371;52.272;9.746;2022-11-22T17:30:00;1.77;;;1.50;;